Time;durP1;ratioP1;P1;durP2;ratioP2;P2;SDS_P1;SDS_P2;PMS_P1;PMS_P2;Temp;Humidity;BMP_temperature;BMP_pressure;BME280_temperature;BME280_humidity;BME280_pressure;Samples;Min_cycle;Max_cycle;Signal;HPM_P1;HPM_P2
2022/11/23 05:00:24;;;;;;;4.57;2.33;;;5.40;99.90;;;;;;5996704;23;20429;-65
2022/11/23 05:02:51;;;;;;;8.10;2.60;;;5.40;99.90;;;;;;4955521;29;20463;-65
2022/11/23 05:05:18;;;;;;;8.23;2.70;;;5.50;99.90;;;;;;4956819;29;20450;-67
2022/11/23 05:07:44;;;;;;;5.77;2.67;;;5.50;99.90;;;;;;4957249;29;20472;-66
2022/11/23 05:10:11;;;;;;;4.93;2.63;;;5.50;99.90;;;;;;4957035;29;20457;-65
2022/11/23 05:12:38;;;;;;;6.63;2.40;;;5.50;99.90;;;;;;4957315;29;20460;-67
2022/11/23 05:15:05;;;;;;;5.20;2.80;;;5.50;99.90;;;;;;4956596;29;20455;-66
2022/11/23 05:17:34;;;;;;;3.03;2.50;;;5.50;99.90;;;;;;4956208;29;20447;-66
2022/11/23 05:20:00;;;;;;;5.90;3.00;;;5.50;99.90;;;;;;4955648;29;20998;-66
2022/11/23 05:22:27;;;;;;;6.37;2.90;;;5.50;99.90;;;;;;4955427;29;20526;-66
2022/11/23 05:24:54;;;;;;;5.67;2.53;;;5.50;99.90;;;;;;4955605;29;20455;-66
2022/11/23 05:27:21;;;;;;;6.23;2.50;;;5.50;99.90;;;;;;4955000;29;20479;-66
2022/11/23 05:29:47;;;;;;;3.90;2.53;;;5.50;99.90;;;;;;4955464;29;20467;-66
2022/11/23 05:32:14;;;;;;;4.10;2.53;;;5.50;99.90;;;;;;4955076;29;20534;-66
2022/11/23 05:34:42;;;;;;;5.73;2.50;;;5.50;99.90;;;;;;4955574;29;20506;-66
2022/11/23 05:37:09;;;;;;;3.50;2.53;;;5.50;99.90;;;;;;4955420;29;20460;-66
2022/11/23 05:39:35;;;;;;;5.57;2.53;;;5.40;99.90;;;;;;4955371;29;20459;-66
2022/11/23 05:42:02;;;;;;;4.80;2.40;;;5.40;99.90;;;;;;4955396;29;20486;-66
2022/11/23 05:44:29;;;;;;;6.27;2.30;;;5.40;99.90;;;;;;4955512;29;20459;-66
2022/11/23 05:46:55;;;;;;;4.13;2.17;;;5.40;99.90;;;;;;4955440;29;20462;-66
2022/11/23 05:49:22;;;;;;;5.80;2.93;;;5.40;99.90;;;;;;4955296;29;20455;-66
2022/11/23 05:51:50;;;;;;;6.90;2.83;;;5.40;99.90;;;;;;4955188;29;20471;-66
2022/11/23 05:54:16;;;;;;;7.40;2.90;;;5.40;99.90;;;;;;4955235;29;20518;-66
2022/11/23 05:56:43;;;;;;;4.70;3.00;;;5.40;99.90;;;;;;4955701;29;20459;-66
2022/11/23 05:59:10;;;;;;;5.40;3.30;;;5.40;99.90;;;;;;4956198;28;20462;-66
2022/11/23 06:01:37;;;;;;;4.70;2.83;;;5.40;99.90;;;;;;4958420;29;20538;-66
2022/11/23 06:04:05;;;;;;;6.00;3.00;;;5.40;99.90;;;;;;4958654;29;20455;-66
2022/11/23 06:06:32;;;;;;;5.20;3.30;;;5.40;99.90;;;;;;4958660;29;20466;-66
2022/11/23 06:09:00;;;;;;;3.63;2.97;;;5.40;99.90;;;;;;4958155;29;21065;-66
2022/11/23 06:11:27;;;;;;;6.20;3.60;;;5.40;99.90;;;;;;4958485;29;20479;-66
2022/11/23 06:13:53;;;;;;;10.10;3.10;;;5.40;99.90;;;;;;4958003;29;20456;-64
2022/11/23 06:16:20;;;;;;;5.10;3.07;;;5.50;99.90;;;;;;4958290;29;20462;-64
2022/11/23 06:18:46;;;;;;;7.53;3.30;;;5.60;99.90;;;;;;4958297;29;20459;-66
2022/11/23 06:21:13;;;;;;;4.80;2.73;;;5.60;99.90;;;;;;4958299;29;20875;-66
2022/11/23 06:23:40;;;;;;;10.20;3.60;;;5.60;99.90;;;;;;4958176;29;20911;-66
2022/11/23 06:26:08;;;;;;;4.40;2.90;;;5.50;99.90;;;;;;4958111;29;20452;-66
2022/11/23 06:28:35;;;;;;;6.27;3.03;;;5.50;99.90;;;;;;4957633;29;21011;-66
2022/11/23 06:31:04;;;;;;;5.97;2.90;;;5.50;99.90;;;;;;4957965;29;20480;-66
2022/11/23 06:33:30;;;;;;;5.10;2.60;;;5.50;99.90;;;;;;4958003;29;20448;-66
2022/11/23 06:35:59;;;;;;;11.53;3.60;;;5.60;99.90;;;;;;4958225;29;20518;-68
2022/11/23 06:38:26;;;;;;;2.97;2.67;;;5.60;99.90;;;;;;4958532;29;20456;-67
2022/11/23 06:40:53;;;;;;;6.50;3.60;;;5.60;99.90;;;;;;4958405;29;20479;-66
2022/11/23 06:43:21;;;;;;;5.60;3.40;;;5.50;99.90;;;;;;4958917;29;20490;-67
2022/11/23 06:45:48;;;;;;;7.00;3.43;;;5.50;99.90;;;;;;4957874;29;20947;-67
2022/11/23 06:48:14;;;;;;;5.23;3.50;;;5.50;99.90;;;;;;4957757;29;20475;-67
2022/11/23 06:50:41;;;;;;;7.23;4.00;;;5.50;99.90;;;;;;4957727;29;20530;-67
2022/11/23 06:53:11;;;;;;;6.30;3.33;;;5.50;99.90;;;;;;4957631;29;20464;-67
2022/11/23 06:55:38;;;;;;;8.40;4.03;;;5.50;99.90;;;;;;4957777;29;20511;-67
2022/11/23 06:58:05;;;;;;;8.90;3.77;;;5.60;99.90;;;;;;4957416;29;20939;-67
2022/11/23 07:00:33;;;;;;;7.10;3.50;;;5.60;99.90;;;;;;4957408;29;20483;-68
2022/11/23 07:03:00;;;;;;;4.03;3.63;;;5.70;99.90;;;;;;4957721;29;20444;-66
2022/11/23 07:05:27;;;;;;;7.93;4.27;;;5.70;99.90;;;;;;4957632;29;20452;-67
2022/11/23 07:07:54;;;;;;;3.93;3.23;;;5.80;99.90;;;;;;4957478;29;20483;-66
2022/11/23 07:10:21;;;;;;;8.57;3.63;;;5.80;99.90;;;;;;4957265;28;20456;-65
2022/11/23 07:12:47;;;;;;;8.70;3.87;;;5.80;99.90;;;;;;4957304;29;20508;-66
2022/11/23 07:15:14;;;;;;;8.30;4.03;;;5.80;99.90;;;;;;4957309;29;20459;-66
2022/11/23 07:17:43;;;;;;;8.20;4.50;;;5.90;99.90;;;;;;4957350;29;20484;-66
2022/11/23 07:20:12;;;;;;;6.90;4.37;;;6.00;99.90;;;;;;4957217;29;21041;-66
2022/11/23 07:22:39;;;;;;;7.73;3.27;;;6.10;99.90;;;;;;4957281;29;20466;-66
2022/11/23 07:25:06;;;;;;;14.47;5.40;;;6.50;99.90;;;;;;4957566;29;20459;-65
2022/11/23 07:27:33;;;;;;;8.30;3.37;;;6.90;99.90;;;;;;4956996;29;20510;-66
2022/11/23 07:29:59;;;;;;;10.97;4.23;;;7.40;99.90;;;;;;4956937;29;20495;-66
2022/11/23 07:32:26;;;;;;;5.50;4.20;;;8.00;99.90;;;;;;4956904;29;20880;-66
2022/11/23 07:34:55;;;;;;;6.47;3.43;;;8.70;99.90;;;;;;4956552;29;20990;-66
2022/11/23 07:37:22;;;;;;;4.23;3.33;;;9.40;99.90;;;;;;4956930;29;20456;-66
2022/11/23 07:39:51;;;;;;;4.40;2.83;;;10.10;99.90;;;;;;4956967;29;20867;-66
2022/11/23 07:42:18;;;;;;;7.33;3.50;;;10.50;99.90;;;;;;4956803;29;20479;-66
2022/11/23 07:44:44;;;;;;;5.50;3.23;;;11.10;99.90;;;;;;4956586;29;21004;-66
2022/11/23 07:47:11;;;;;;;5.50;3.13;;;11.60;99.90;;;;;;4956470;29;20863;-67
2022/11/23 07:49:38;;;;;;;4.50;3.00;;;12.10;99.90;;;;;;4956691;29;20577;-66
2022/11/23 07:52:06;;;;;;;5.63;2.53;;;12.70;99.90;;;;;;4956681;29;20507;-66
2022/11/23 07:54:32;;;;;;;4.67;2.90;;;13.20;99.90;;;;;;4956261;29;20958;-67
2022/11/23 07:56:59;;;;;;;11.53;3.30;;;13.70;99.90;;;;;;4956483;29;20515;-67
2022/11/23 07:59:26;;;;;;;4.40;2.70;;;13.90;99.90;;;;;;4956546;29;20462;-67
2022/11/23 08:01:52;;;;;;;5.87;2.70;;;14.50;99.90;;;;;;4956038;29;20877;-67
2022/11/23 08:04:19;;;;;;;5.10;2.70;;;15.10;99.90;;;;;;4956078;29;20943;-67
2022/11/23 08:06:46;;;;;;;6.47;2.70;;;15.40;98.10;;;;;;4956351;29;20460;-67
2022/11/23 08:09:14;;;;;;;5.90;2.77;;;15.60;96.20;;;;;;4956305;29;20483;-67
2022/11/23 08:11:41;;;;;;;6.10;3.03;;;15.70;96.30;;;;;;4956162;29;20475;-67
2022/11/23 08:14:07;;;;;;;5.80;2.87;;;16.20;95.20;;;;;;4956123;29;20878;-67
2022/11/23 08:16:34;;;;;;;2.60;2.20;;;16.50;94.10;;;;;;4956309;29;20460;-67
2022/11/23 08:19:00;;;;;;;6.23;3.20;;;16.60;92.90;;;;;;4956145;29;20522;-67
2022/11/23 08:21:27;;;;;;;7.43;2.87;;;16.90;92.50;;;;;;4955348;28;21054;-67
2022/11/23 08:23:54;;;;;;;3.53;2.10;;;17.10;90.60;;;;;;4956132;29;20456;-67
2022/11/23 08:26:22;;;;;;;7.20;2.70;;;17.30;89.30;;;;;;4956066;29;20459;-67
2022/11/23 08:28:48;;;;;;;4.30;2.13;;;17.60;89.20;;;;;;4956050;29;20534;-67
2022/11/23 08:31:15;;;;;;;4.90;3.03;;;17.90;87.00;;;;;;4955768;29;20987;-67
2022/11/23 08:33:42;;;;;;;4.03;2.33;;;18.30;83.80;;;;;;4955850;29;20463;-67
2022/11/23 08:36:09;;;;;;;10.10;2.27;;;17.90;84.40;;;;;;4956216;29;20459;-67
2022/11/23 08:38:36;;;;;;;7.70;2.77;;;17.80;84.30;;;;;;4955986;29;20451;-65
2022/11/23 08:41:04;;;;;;;5.60;2.23;;;18.10;95.50;;;;;;4955842;29;20502;-67
2022/11/23 08:43:33;;;;;;;2.90;2.07;;;18.40;83.50;;;;;;4955618;29;20969;-67
2022/11/23 08:46:01;;;;;;;4.67;2.40;;;18.50;82.00;;;;;;4955855;29;20455;-67
2022/11/23 08:48:28;;;;;;;6.67;2.40;;;18.40;80.30;;;;;;4955426;29;21076;-65
2022/11/23 08:50:59;;;;;;;5.30;2.30;;;18.00;79.60;;;;;;4955834;29;20502;-67
2022/11/23 08:53:26;;;;;;;4.80;3.30;;;18.20;81.10;;;;;;4955862;29;20444;-67
2022/11/23 08:55:52;;;;;;;4.83;2.67;;;18.40;81.50;;;;;;4955981;29;20462;-67
2022/11/23 08:58:19;;;;;;;3.53;2.03;;;18.40;79.90;;;;;;4955575;29;20448;-67
2022/11/23 09:00:47;;;;;;;4.43;2.47;;;17.80;79.30;;;;;;4955457;29;20487;-67
2022/11/23 09:03:14;;;;;;;6.50;2.60;;;17.10;82.40;;;;;;4955598;29;20443;-67
2022/11/23 09:05:40;;;;;;;5.17;2.53;;;16.40;85.10;;;;;;4955556;29;20459;-67
2022/11/23 09:08:07;;;;;;;6.77;3.00;;;15.40;87.60;;;;;;4955333;29;20538;-67
2022/11/23 09:10:34;;;;;;;6.30;3.20;;;14.50;90.70;;;;;;4955411;29;20480;-67
2022/11/23 09:13:01;;;;;;;3.40;2.50;;;13.90;91.90;;;;;;4955393;29;20463;-67
2022/11/23 09:15:28;;;;;;;3.80;2.20;;;13.30;93.00;;;;;;4955570;29;20455;-67
2022/11/23 09:17:56;;;;;;;2.70;2.00;;;12.70;94.30;;;;;;4955293;29;20943;-62
2022/11/23 09:20:23;;;;;;;4.43;2.50;;;12.30;96.50;;;;;;4955467;29;20451;-63
2022/11/23 09:22:53;;;;;;;5.00;3.07;;;12.20;97.90;;;;;;4955488;29;20479;-62
2022/11/23 09:25:21;;;;;;;4.43;2.40;;;12.60;98.30;;;;;;4955353;29;20974;-63
2022/11/23 09:27:48;;;;;;;3.10;2.77;;;13.20;98.30;;;;;;4955608;29;20460;-62
2022/11/23 09:30:16;;;;;;;4.30;2.30;;;14.20;94.80;;;;;;4955416;29;20858;-63
2022/11/23 09:32:42;;;;;;;2.97;2.60;;;15.00;93.60;;;;;;4955410;28;20482;-63
2022/11/23 09:35:10;;;;;;;4.77;2.43;;;15.90;91.90;;;;;;4957898;29;20466;-63
2022/11/23 09:37:37;;;;;;;4.17;2.10;;;16.70;90.20;;;;;;4958805;29;20880;-63
2022/11/23 09:40:05;;;;;;;5.37;2.57;;;17.30;86.10;;;;;;4959165;29;20459;-63
2022/11/23 09:42:53;;;;;;;4.87;2.50;;;18.00;84.10;;;;;;4959155;29;20479;-63
2022/11/23 09:45:26;;;;;;;6.97;3.03;;;18.70;80.80;;;;;;4959015;29;20448;-63
2022/11/23 09:48:16;;;;;;;3.33;1.90;;;19.50;78.80;;;;;;4959237;29;20436;-63
2022/11/23 09:50:49;;;;;;;4.60;2.80;;;19.90;75.40;;;;;;4958618;29;20522;-63
2022/11/23 09:53:20;;;;;;;5.20;2.63;;;20.20;72.20;;;;;;4958688;29;20903;-63
2022/11/23 09:55:49;;;;;;;5.03;2.67;;;19.50;72.60;;;;;;4958912;29;20454;-62
2022/11/23 09:58:17;;;;;;;4.50;2.40;;;18.20;74.30;;;;;;4958675;29;20511;-63
2022/11/23 10:00:48;;;;;;;6.70;2.70;;;17.20;77.50;;;;;;4958476;29;20549;-63
2022/11/23 10:03:16;;;;;;;3.20;2.00;;;16.10;80.70;;;;;;4958873;29;20456;-63
2022/11/23 10:05:52;;;;;;;4.20;2.30;;;15.50;85.50;;;;;;4959026;29;20969;-63
2022/11/23 10:08:30;;;;;;;5.90;3.20;;;15.20;86.50;;;;;;4960038;29;20439;-63
2022/11/23 10:11:06;;;;;;;2.83;2.50;;;15.00;89.70;;;;;;4959313;29;20475;-63
2022/11/23 10:13:38;;;;;;;4.67;2.17;;;15.40;88.10;;;;;;4958443;29;20443;-63
2022/11/23 10:16:24;;;;;;;3.30;2.27;;;16.10;86.40;;;;;;4958590;29;20443;-63
2022/11/23 10:18:57;;;;;;;8.53;2.80;;;16.90;84.40;;;;;;4958461;29;20439;-63
2022/11/23 10:21:34;;;;;;;2.80;2.60;;;17.80;83.40;;;;;;4958059;29;20486;-63
2022/11/23 10:24:11;;;;;;;7.53;2.73;;;18.80;78.70;;;;;;4957986;29;20942;-63
2022/11/23 10:26:42;;;;;;;3.30;2.57;;;19.50;74.50;;;;;;4958255;29;20447;-63
2022/11/23 10:29:13;;;;;;;2.83;2.30;;;20.20;74.00;;;;;;4958191;29;20484;-63
2022/11/23 10:31:45;;;;;;;3.57;3.10;;;20.30;70.10;;;;;;4958149;29;20480;-63
2022/11/23 10:34:13;;;;;;;5.23;2.53;;;20.50;70.40;;;;;;4957862;29;20907;-63
2022/11/23 10:36:42;;;;;;;4.60;2.73;;;20.50;69.70;;;;;;4958204;29;20460;-63
2022/11/23 10:39:16;;;;;;;2.60;2.37;;;20.00;67.80;;;;;;4957777;29;20459;-62
2022/11/23 10:41:44;;;;;;;5.43;2.60;;;19.30;70.40;;;;;;4958159;29;20512;-63
2022/11/23 10:44:24;;;;;;;6.27;2.80;;;18.60;71.20;;;;;;4957864;28;20464;-63
2022/11/23 10:46:51;;;;;;;5.20;3.07;;;17.90;73.40;;;;;;4957655;29;20499;-62
2022/11/23 10:49:20;;;;;;;4.07;2.60;;;17.00;75.60;;;;;;4957758;29;20506;-62
2022/11/23 10:51:51;;;;;;;7.90;2.80;;;16.20;78.10;;;;;;4958546;29;20981;-62
2022/11/23 10:54:22;;;;;;;4.23;2.50;;;15.60;81.30;;;;;;4957705;29;20444;-63
2022/11/23 10:56:50;;;;;;;5.07;2.83;;;15.00;84.10;;;;;;4957783;29;20502;-62
2022/11/23 10:59:28;;;;;;;5.60;3.23;;;14.50;84.60;;;;;;4957767;29;20514;-62
2022/11/23 11:02:11;;;;;;;9.43;3.70;;;14.00;87.80;;;;;;4957315;29;20488;-62
2022/11/23 11:04:37;;;;;;;5.17;2.60;;;13.60;90.00;;;;;;4957687;29;20855;-62
2022/11/23 11:07:22;;;;;;;4.30;2.80;;;13.10;90.70;;;;;;4957615;29;20455;-63
2022/11/23 11:09:52;;;;;;;5.90;2.70;;;12.90;91.90;;;;;;4957215;29;20854;-61
2022/11/23 11:12:19;;;;;;;7.63;2.73;;;12.70;92.50;;;;;;4957482;29;20535;-62
2022/11/23 11:15:02;;;;;;;4.30;2.20;;;12.70;99.60;;;;;;4957260;29;20459;-63
2022/11/23 11:17:31;;;;;;;6.60;2.70;;;12.70;99.90;;;;;;4957820;29;20447;-63
2022/11/23 11:19:58;;;;;;;5.57;2.37;;;12.70;98.10;;;;;;4958238;29;20511;-62
2022/11/23 11:22:32;;;;;;;5.37;2.50;;;12.60;97.70;;;;;;4957591;29;20476;-63
2022/11/23 11:24:58;;;;;;;3.27;1.93;;;12.50;97.50;;;;;;4958367;29;20495;-63
2022/11/23 11:27:28;;;;;;;7.73;2.80;;;12.50;99.90;;;;;;4958839;29;20514;-62
2022/11/23 11:29:59;;;;;;;6.27;3.33;;;12.40;98.20;;;;;;4957656;29;20991;-61
2022/11/23 11:32:30;;;;;;;9.83;2.97;;;12.30;97.90;;;;;;4957077;29;20471;-61
2022/11/23 11:35:03;;;;;;;4.27;3.10;;;12.40;99.90;;;;;;4957182;29;20451;-62
2022/11/23 11:37:35;;;;;;;6.63;2.23;;;12.40;99.00;;;;;;4957011;29;20508;-62
2022/11/23 11:40:09;;;;;;;3.50;2.40;;;12.40;97.80;;;;;;4956962;29;20515;-62
2022/11/23 11:42:40;;;;;;;4.50;2.80;;;12.40;98.60;;;;;;4956842;29;20482;-62
2022/11/23 11:45:16;;;;;;;5.10;2.33;;;12.40;98.20;;;;;;4956763;29;20444;-62
2022/11/23 11:47:49;;;;;;;7.77;4.23;;;12.40;97.50;;;;;;4956786;29;20436;-62
2022/11/23 11:50:22;;;;;;;3.90;2.57;;;12.40;97.70;;;;;;4956539;29;20474;-62
2022/11/23 11:52:55;;;;;;;4.93;3.43;;;12.40;95.90;;;;;;4956492;29;20506;-62
2022/11/23 11:55:26;;;;;;;6.63;3.43;;;12.40;96.20;;;;;;4956549;29;20878;-62
2022/11/23 11:58:01;;;;;;;3.07;2.30;;;12.40;95.90;;;;;;4956055;28;20461;-62
2022/11/23 12:00:29;;;;;;;3.63;2.40;;;12.40;95.80;;;;;;4956182;29;20467;-62
2022/11/23 12:03:05;;;;;;;4.90;2.67;;;12.30;95.60;;;;;;4956104;29;20923;-62
2022/11/23 12:05:39;;;;;;;2.97;2.00;;;12.30;95.40;;;;;;4956512;29;20452;-62
2022/11/23 12:08:13;;;;;;;3.27;2.20;;;12.30;95.10;;;;;;4957373;29;20440;-62
2022/11/23 12:10:44;;;;;;;2.40;2.00;;;12.30;94.50;;;;;;4959041;29;20494;-62
2022/11/23 12:13:15;;;;;;;5.80;2.27;;;12.20;93.70;;;;;;4957900;29;20916;-62
2022/11/23 12:15:45;;;;;;;3.30;1.97;;;12.20;94.10;;;;;;4958853;29;20448;-63
2022/11/23 12:18:27;;;;;;;2.23;2.00;;;12.10;93.70;;;;;;4956307;29;20443;-63
2022/11/23 12:21:02;;;;;;;2.47;1.60;;;12.10;93.40;;;;;;4955794;29;20467;-62
2022/11/23 12:23:38;;;;;;;3.10;1.60;;;12.10;93.90;;;;;;4955987;29;20784;-62
2022/11/23 12:26:19;;;;;;;4.07;2.40;;;12.10;93.80;;;;;;4956629;29;20439;-62
2022/11/23 12:29:01;;;;;;;4.33;2.20;;;12.00;93.40;;;;;;4955961;29;20447;-62
2022/11/23 12:31:40;;;;;;;7.53;1.60;;;12.00;94.20;;;;;;4956196;29;20478;-62
2022/11/23 12:34:20;;;;;;;5.20;2.03;;;12.00;93.50;;;;;;4956171;29;20805;-62
2022/11/23 12:37:16;;;;;;;2.73;1.70;;;12.00;92.90;;;;;;4955978;29;20532;-62
2022/11/23 12:40:14;;;;;;;2.10;1.53;;;11.90;92.30;;;;;;4955741;29;20851;-62
2022/11/23 12:42:45;;;;;;;3.30;2.27;;;11.90;92.60;;;;;;4954278;29;20468;-62
2022/11/23 12:45:36;;;;;;;2.47;1.63;;;11.90;93.50;;;;;;4956002;29;20444;-62
2022/11/23 12:48:18;;;;;;;3.10;1.37;;;12.00;93.30;;;;;;4955578;29;20819;-62
2022/11/23 12:50:49;;;;;;;1.97;1.47;;;11.90;92.20;;;;;;4955410;29;20982;-62
2022/11/23 12:53:34;;;;;;;3.43;1.63;;;11.90;92.10;;;;;;4957060;29;20494;-62
2022/11/23 12:56:10;;;;;;;4.83;1.70;;;11.70;92.60;;;;;;4958430;29;20450;-62
2022/11/23 12:58:39;;;;;;;1.83;1.10;;;11.70;92.50;;;;;;4956942;29;20439;-62
2022/11/23 13:01:10;;;;;;;3.30;1.50;;;11.70;93.00;;;;;;4955641;29;20487;-62
2022/11/23 13:04:35;;;;;;;1.63;1.30;;;11.70;93.20;;;;;;4955746;29;20455;-62
2022/11/23 13:07:30;;;;;;;1.27;1.17;;;11.60;92.00;;;;;;4955545;29;20440;-62
2022/11/23 13:10:20;;;;;;;2.03;1.40;;;11.60;92.40;;;;;;4959624;29;20872;-62
2022/11/23 13:13:06;;;;;;;2.23;1.27;;;11.60;93.40;;;;;;4947188;29;20474;-62
2022/11/23 13:16:01;;;;;;;3.73;1.30;;;11.60;93.30;;;;;;4959567;29;20462;-62
2022/11/23 13:18:41;;;;;;;8.60;1.33;;;11.60;93.00;;;;;;4959461;29;20794;-62
2022/11/23 13:21:18;;;;;;;2.30;1.00;;;11.60;93.80;;;;;;4959414;29;20478;-62
2022/11/23 13:23:45;;;;;;;2.73;1.30;;;11.60;94.20;;;;;;4959118;29;20961;-66
2022/11/23 13:26:16;;;;;;;1.40;1.30;;;11.60;93.90;;;;;;4959223;29;20519;-66
2022/11/23 13:28:45;;;;;;;1.27;1.10;;;11.50;93.50;;;;;;4959055;29;20955;-66
2022/11/23 13:31:22;;;;;;;4.00;1.67;;;11.50;94.10;;;;;;4959103;29;20483;-66
2022/11/23 13:33:50;;;;;;;2.03;1.60;;;11.60;94.20;;;;;;4958934;29;20854;-66
2022/11/23 13:36:49;;;;;;;2.63;1.20;;;11.60;94.40;;;;;;4959080;29;20455;-66
2022/11/23 13:39:57;;;;;;;1.23;1.13;;;11.60;94.40;;;;;;4958031;29;20455;-66
2022/11/23 13:42:25;;;;;;;1.80;1.53;;;11.50;94.50;;;;;;4958800;29;20483;-62
2022/11/23 13:45:28;;;;;;;3.10;1.70;;;11.50;94.50;;;;;;4958924;29;20458;-66
2022/11/23 13:48:17;;;;;;;3.03;1.67;;;11.50;94.50;;;;;;4958956;29;20447;-67
2022/11/23 13:50:59;;;;;;;2.37;1.60;;;11.40;94.90;;;;;;4958686;29;20987;-66
2022/11/23 13:53:29;;;;;;;5.83;2.30;;;11.40;95.20;;;;;;4955953;29;20511;-67
2022/11/23 13:55:58;;;;;;;2.30;1.40;;;11.30;95.40;;;;;;4958821;29;20451;-66
2022/11/23 13:58:39;;;;;;;2.23;1.03;;;11.30;95.60;;;;;;4959103;29;20483;-66
2022/11/23 14:01:07;;;;;;;4.33;1.60;;;11.30;95.60;;;;;;4958443;29;20490;-66
2022/11/23 14:03:50;;;;;;;1.37;1.20;;;11.30;96.00;;;;;;4958517;29;20955;-66
2022/11/23 14:06:29;;;;;;;2.70;1.50;;;11.30;96.30;;;;;;4958755;29;20490;-66
2022/11/23 14:09:02;;;;;;;1.50;1.37;;;11.30;96.40;;;;;;4958711;29;20439;-66
2022/11/23 14:11:31;;;;;;;2.97;1.50;;;11.30;96.40;;;;;;4958378;29;20483;-66
2022/11/23 14:14:02;;;;;;;4.80;1.53;;;11.20;96.50;;;;;;4958224;29;21005;-66
2022/11/23 14:16:53;;;;;;;2.50;1.60;;;11.20;96.70;;;;;;4958485;29;20499;-66
2022/11/23 14:19:28;;;;;;;2.40;1.80;;;11.20;96.90;;;;;;4957844;28;20511;-66
2022/11/23 14:22:03;;;;;;;3.03;1.17;;;11.20;97.20;;;;;;4958472;29;20547;-66
2022/11/23 14:24:45;;;;;;;1.67;1.50;;;11.10;97.00;;;;;;4958359;29;20443;-66
2022/11/23 14:27:28;;;;;;;1.93;1.30;;;11.10;97.40;;;;;;4958185;29;20499;-66
2022/11/23 14:30:06;;;;;;;2.03;1.47;;;11.10;97.20;;;;;;4957987;29;20498;-66
2022/11/23 14:32:47;;;;;;;4.00;1.47;;;11.10;97.40;;;;;;4958172;29;20479;-66
2022/11/23 14:35:25;;;;;;;6.07;1.97;;;11.20;97.70;;;;;;4957827;29;20436;-66
2022/11/23 14:38:18;;;;;;;5.00;1.20;;;11.50;97.70;;;;;;4958139;29;20798;-66
2022/11/23 14:40:54;;;;;;;2.70;1.70;;;11.80;96.80;;;;;;4958009;29;20479;-66
2022/11/23 14:43:22;;;;;;;2.33;1.40;;;11.90;96.10;;;;;;4958072;29;20498;-66
2022/11/23 14:45:48;;;;;;;1.57;1.20;;;11.80;96.00;;;;;;4957870;29;20866;-65
2022/11/23 14:48:27;;;;;;;4.23;1.40;;;11.70;95.70;;;;;;4958003;29;20447;-66
2022/11/23 14:50:56;;;;;;;1.37;1.27;;;11.50;96.20;;;;;;4957637;29;21092;-66
2022/11/23 14:53:25;;;;;;;1.60;1.37;;;11.20;96.30;;;;;;4957853;29;20538;-66
2022/11/23 14:55:52;;;;;;;4.20;1.60;;;11.00;96.90;;;;;;4957888;29;20467;-66
2022/11/23 14:58:22;;;;;;;2.93;1.63;;;10.90;97.10;;;;;;4957329;29;20502;-67
2022/11/23 15:00:49;;;;;;;2.10;1.30;;;10.80;97.30;;;;;;4957622;29;20479;-67
2022/11/23 15:03:18;;;;;;;2.13;1.40;;;10.60;97.60;;;;;;4957410;29;21005;-66
2022/11/23 15:05:49;;;;;;;1.43;1.33;;;10.50;97.80;;;;;;4957563;29;20455;-67
2022/11/23 15:08:19;;;;;;;1.60;1.50;;;10.40;98.10;;;;;;4957549;29;20444;-66
2022/11/23 15:10:52;;;;;;;3.63;1.50;;;10.30;98.60;;;;;;4957292;29;20483;-65
2022/11/23 15:13:21;;;;;;;2.37;2.07;;;10.20;99.10;;;;;;4957328;29;20440;-63
2022/11/23 15:15:51;;;;;;;1.53;1.43;;;10.10;99.30;;;;;;4957092;29;20879;-62
2022/11/23 15:18:28;;;;;;;2.10;1.70;;;9.90;99.90;;;;;;4958505;29;20538;-63
2022/11/23 15:20:58;;;;;;;2.03;1.80;;;9.90;99.90;;;;;;4957709;29;20566;-62
2022/11/23 15:23:31;;;;;;;1.30;1.20;;;9.80;99.90;;;;;;4958118;29;20456;-62
2022/11/23 15:26:01;;;;;;;3.80;1.30;;;9.70;99.90;;;;;;4958001;29;20447;-62
2022/11/23 15:28:29;;;;;;;5.30;1.33;;;9.70;99.90;;;;;;4957503;29;20864;-62
2022/11/23 15:30:56;;;;;;;2.90;1.50;;;9.60;99.90;;;;;;4956298;28;20824;-63
2022/11/23 15:33:23;;;;;;;3.20;1.47;;;9.60;99.90;;;;;;4956569;29;20464;-63
2022/11/23 15:35:52;;;;;;;1.50;1.37;;;9.50;99.90;;;;;;4956785;29;21023;-62
2022/11/23 15:38:21;;;;;;;2.67;1.77;;;9.50;99.90;;;;;;4956555;29;20828;-62
2022/11/23 15:40:49;;;;;;;3.10;1.20;;;9.40;99.90;;;;;;4957031;29;20475;-62
2022/11/23 15:43:18;;;;;;;1.73;1.57;;;9.30;99.90;;;;;;4957290;29;20459;-62
2022/11/23 15:46:05;;;;;;;1.57;1.47;;;9.30;99.90;;;;;;4956743;29;20828;-66
2022/11/23 15:48:35;;;;;;;2.70;1.47;;;9.20;99.90;;;;;;4956830;29;20537;-66
2022/11/23 15:51:04;;;;;;;2.33;1.60;;;9.10;99.90;;;;;;4957027;29;20574;-66
2022/11/23 15:53:36;;;;;;;3.63;1.90;;;9.10;99.90;;;;;;4956664;29;20459;-67
2022/11/23 15:56:05;;;;;;;3.43;1.90;;;9.00;99.90;;;;;;4956441;29;20979;-67
2022/11/23 15:58:33;;;;;;;4.13;2.03;;;9.00;99.90;;;;;;4956767;29;20542;-67
2022/11/23 16:01:07;;;;;;;2.87;2.67;;;9.00;99.90;;;;;;4956472;29;20567;-67
2022/11/23 16:03:40;;;;;;;5.83;1.93;;;8.90;99.90;;;;;;4956600;29;20440;-67
2022/11/23 16:06:25;;;;;;;1.83;1.67;;;8.90;99.90;;;;;;4956580;29;20470;-66
2022/11/23 16:08:53;;;;;;;2.77;1.63;;;8.90;99.90;;;;;;4956200;29;20804;-67
2022/11/23 16:11:27;;;;;;;4.57;1.73;;;8.90;99.90;;;;;;4956397;29;20542;-67
2022/11/23 16:14:13;;;;;;;2.03;1.67;;;8.90;99.90;;;;;;4956444;29;20444;-67
2022/11/23 16:16:40;;;;;;;2.87;1.73;;;8.90;99.90;;;;;;4956305;29;20448;-67
2022/11/23 16:19:24;;;;;;;2.37;1.70;;;8.90;99.90;;;;;;4956094;29;20993;-65
2022/11/23 16:21:54;;;;;;;3.03;1.87;;;8.90;99.90;;;;;;4956329;29;20471;-65
2022/11/23 16:24:25;;;;;;;3.53;1.90;;;8.90;99.90;;;;;;4956240;29;20443;-65
2022/11/23 16:26:53;;;;;;;2.50;2.30;;;9.00;99.90;;;;;;4955945;29;20926;-65
2022/11/23 16:29:22;;;;;;;7.90;2.60;;;9.10;99.90;;;;;;4956154;29;20612;-65
2022/11/23 16:31:55;;;;;;;4.30;1.97;;;9.10;99.90;;;;;;4956168;29;20494;-65
2022/11/23 16:34:23;;;;;;;3.00;1.50;;;9.10;99.90;;;;;;4956129;29;20514;-65
2022/11/23 16:36:50;;;;;;;2.33;1.87;;;9.20;99.90;;;;;;4956082;29;20596;-65
2022/11/23 16:39:17;;;;;;;2.33;2.13;;;9.20;99.90;;;;;;4956097;29;20823;-65
2022/11/23 16:41:45;;;;;;;3.20;2.90;;;9.30;99.90;;;;;;4956091;29;20518;-65
2022/11/23 16:44:12;;;;;;;6.20;1.90;;;9.30;99.90;;;;;;4955931;28;20488;-66
2022/11/23 16:46:38;;;;;;;2.20;2.00;;;9.40;99.90;;;;;;4956137;29;20514;-65
2022/11/23 16:49:05;;;;;;;3.60;2.57;;;9.40;99.90;;;;;;4956134;29;20463;-65
2022/11/23 16:51:32;;;;;;;2.60;2.40;;;9.40;99.90;;;;;;4956842;29;20479;-71
2022/11/23 16:53:59;;;;;;;4.57;2.50;;;9.40;99.90;;;;;;4957026;29;20819;-70
2022/11/23 16:56:27;;;;;;;3.20;2.10;;;9.40;99.90;;;;;;4956155;29;20459;-70
2022/11/23 16:58:55;;;;;;;4.37;2.47;;;9.40;99.90;;;;;;4955972;29;20527;-70
2022/11/23 17:01:24;;;;;;;3.37;2.73;;;9.40;99.90;;;;;;4956507;29;20484;-69
2022/11/23 17:03:51;;;;;;;6.60;3.13;;;9.40;99.90;;;;;;4956568;29;20789;-70
2022/11/23 17:06:21;;;;;;;3.27;2.97;;;9.40;99.90;;;;;;4956125;29;20463;-70
2022/11/23 17:08:49;;;;;;;7.87;3.00;;;9.30;99.90;;;;;;4955912;29;20815;-69
2022/11/23 17:11:18;;;;;;;3.80;2.60;;;9.30;99.90;;;;;;4955914;29;20538;-69
2022/11/23 17:13:47;;;;;;;2.40;2.20;;;9.20;99.90;;;;;;4956697;29;20544;-70
2022/11/23 17:16:16;;;;;;;4.47;2.43;;;9.10;99.90;;;;;;4959117;29;20460;-69
2022/11/23 17:18:43;;;;;;;4.50;2.40;;;9.10;99.90;;;;;;4958233;29;20482;-69
2022/11/23 17:21:10;;;;;;;3.37;2.97;;;9.00;99.90;;;;;;4961683;29;20885;-69
2022/11/23 17:23:39;;;;;;;4.23;2.37;;;8.90;99.90;;;;;;4958978;29;20943;-69
2022/11/23 17:26:07;;;;;;;2.27;2.03;;;8.80;99.90;;;;;;4956219;29;20456;-69
2022/11/23 17:28:34;;;;;;;3.13;2.57;;;8.70;99.90;;;;;;4955810;29;20514;-69
2022/11/23 17:31:01;;;;;;;10.93;2.37;;;8.60;99.90;;;;;;4955517;29;20484;-69
2022/11/23 17:33:29;;;;;;;5.80;2.17;;;8.50;99.90;;;;;;4955613;29;20534;-69
2022/11/23 17:35:58;;;;;;;3.50;2.13;;;8.40;99.90;;;;;;4955221;29;20939;-69
2022/11/23 17:38:26;;;;;;;2.80;2.23;;;8.30;99.90;;;;;;4955053;29;20459;-69
2022/11/23 17:40:53;;;;;;;2.20;2.10;;;8.30;99.90;;;;;;4955426;29;20479;-68
2022/11/23 17:43:20;;;;;;;2.77;2.50;;;8.20;99.90;;;;;;4955568;29;20491;-68
2022/11/23 17:45:47;;;;;;;4.23;2.13;;;8.10;99.90;;;;;;4955385;29;20460;-68
2022/11/23 17:48:15;;;;;;;3.77;1.80;;;8.10;99.90;;;;;;4955589;29;20456;-67
2022/11/23 17:50:46;;;;;;;2.20;2.10;;;8.00;99.90;;;;;;4955453;29;20475;-68
2022/11/23 17:53:12;;;;;;;3.00;2.10;;;8.00;99.90;;;;;;4955677;29;20444;-68
2022/11/23 17:55:39;;;;;;;2.87;2.20;;;8.00;99.90;;;;;;4957067;28;20514;-68
2022/11/23 17:58:07;;;;;;;1.73;1.63;;;7.90;99.90;;;;;;4958875;29;20466;-69
2022/11/23 18:00:34;;;;;;;3.57;2.30;;;7.90;99.90;;;;;;4958644;29;20463;-69
2022/11/23 18:03:03;;;;;;;4.80;2.20;;;7.90;99.90;;;;;;4958918;29;20753;-69
2022/11/23 18:05:30;;;;;;;2.53;2.00;;;7.80;99.90;;;;;;4958723;29;20466;-69
2022/11/23 18:07:58;;;;;;;2.70;2.50;;;7.80;99.90;;;;;;4958643;29;20542;-68
2022/11/23 18:10:25;;;;;;;5.10;3.30;;;7.70;99.90;;;;;;4958488;29;20455;-68